San Antonio, Texas
Traffic Map
Current Weather Conditions
San Antonio, Texas
Clear
Clear
30°
Feels Like: 34°
Wind Chill: 30° Ceiling: Unl
Heat Index: 34° Visibility: 10mi
Dew Point: 23° Wind: 14mph
Humidity: 66% Direction: 110° (ESE)
Pressure: 29.87in Gusts: 21mph
Raw Report DataKSKF 282358Z 11012G18KT 10SM CLR 30/23 A2987 RMK AO2A LTG DSNT W SLP107 T03010230 10328 20301 56005 $
Traffic Incident Summary
Active as of:
Severity:
Category:
InformationThere was an issue retrieving the traffic information for this location. Please try a different location or try again shortly.
Advertisements
Track Severe Weather on mobile